sensor_id;sensor_type;location;lat;lon;timestamp;P1;durP1;ratioP1;P2;durP2;ratioP2
12110;SDS011;6119;52.372;8.990;2022-08-05T00:00:16;24.93;;;11.67;;
12110;SDS011;6119;52.372;8.990;2022-08-05T00:03:03;20.90;;;13.10;;
12110;SDS011;6119;52.372;8.990;2022-08-05T00:06:00;19.30;;;12.17;;
12110;SDS011;6119;52.372;8.990;2022-08-05T00:09:07;21.97;;;12.40;;
12110;SDS011;6119;52.372;8.990;2022-08-05T00:11:58;24.10;;;13.70;;
12110;SDS011;6119;52.372;8.990;2022-08-05T00:14:45;22.43;;;13.97;;
12110;SDS011;6119;52.372;8.990;2022-08-05T00:17:35;21.70;;;13.00;;
12110;SDS011;6119;52.372;8.990;2022-08-05T00:20:25;24.90;;;13.07;;
12110;SDS011;6119;52.372;8.990;2022-08-05T00:23:14;20.97;;;12.53;;
12110;SDS011;6119;52.372;8.990;2022-08-05T00:26:21;24.97;;;12.73;;
12110;SDS011;6119;52.372;8.990;2022-08-05T00:29:07;20.93;;;13.23;;
12110;SDS011;6119;52.372;8.990;2022-08-05T00:31:53;19.83;;;12.67;;
12110;SDS011;6119;52.372;8.990;2022-08-05T00:34:56;21.07;;;12.57;;
12110;SDS011;6119;52.372;8.990;2022-08-05T00:37:51;22.53;;;13.10;;
12110;SDS011;6119;52.372;8.990;2022-08-05T00:40:46;23.20;;;12.60;;
12110;SDS011;6119;52.372;8.990;2022-08-05T00:43:37;25.23;;;11.73;;
12110;SDS011;6119;52.372;8.990;2022-08-05T00:46:33;23.53;;;12.17;;
12110;SDS011;6119;52.372;8.990;2022-08-05T00:49:27;17.93;;;11.83;;
12110;SDS011;6119;52.372;8.990;2022-08-05T00:52:28;23.43;;;12.30;;
12110;SDS011;6119;52.372;8.990;2022-08-05T00:55:15;19.73;;;11.83;;
12110;SDS011;6119;52.372;8.990;2022-08-05T00:58:04;24.70;;;13.60;;
12110;SDS011;6119;52.372;8.990;2022-08-05T01:00:55;20.83;;;11.50;;
12110;SDS011;6119;52.372;8.990;2022-08-05T01:03:41;19.93;;;11.63;;
12110;SDS011;6119;52.372;8.990;2022-08-05T01:06:33;21.27;;;11.50;;
12110;SDS011;6119;52.372;8.990;2022-08-05T01:09:21;23.83;;;11.20;;
12110;SDS011;6119;52.372;8.990;2022-08-05T01:12:14;21.87;;;11.37;;
12110;SDS011;6119;52.372;8.990;2022-08-05T01:15:07;21.80;;;10.53;;
12110;SDS011;6119;52.372;8.990;2022-08-05T01:18:18;19.80;;;11.23;;
12110;SDS011;6119;52.372;8.990;2022-08-05T01:21:12;18.33;;;11.23;;
12110;SDS011;6119;52.372;8.990;2022-08-05T01:24:25;23.03;;;11.70;;
12110;SDS011;6119;52.372;8.990;2022-08-05T01:30:43;25.13;;;12.03;;
12110;SDS011;6119;52.372;8.990;2022-08-05T01:33:41;23.20;;;11.97;;
12110;SDS011;6119;52.372;8.990;2022-08-05T01:36:39;17.53;;;10.97;;
12110;SDS011;6119;52.372;8.990;2022-08-05T01:39:31;16.57;;;10.60;;
12110;SDS011;6119;52.372;8.990;2022-08-05T01:42:31;23.93;;;12.07;;
12110;SDS011;6119;52.372;8.990;2022-08-05T01:45:20;21.90;;;11.70;;
12110;SDS011;6119;52.372;8.990;2022-08-05T01:48:09;19.27;;;11.83;;
12110;SDS011;6119;52.372;8.990;2022-08-05T01:50:58;20.17;;;12.40;;
12110;SDS011;6119;52.372;8.990;2022-08-05T01:53:56;23.30;;;13.60;;
12110;SDS011;6119;52.372;8.990;2022-08-05T01:56:46;21.20;;;13.00;;
12110;SDS011;6119;52.372;8.990;2022-08-05T01:59:55;25.17;;;13.53;;
12110;SDS011;6119;52.372;8.990;2022-08-05T02:02:47;19.77;;;12.17;;
12110;SDS011;6119;52.372;8.990;2022-08-05T02:05:39;22.40;;;12.37;;
12110;SDS011;6119;52.372;8.990;2022-08-05T02:08:32;19.80;;;13.33;;
12110;SDS011;6119;52.372;8.990;2022-08-05T02:11:40;22.00;;;12.20;;
12110;SDS011;6119;52.372;8.990;2022-08-05T02:14:36;20.13;;;12.43;;
12110;SDS011;6119;52.372;8.990;2022-08-05T02:17:32;23.50;;;13.00;;
12110;SDS011;6119;52.372;8.990;2022-08-05T02:20:46;22.57;;;12.70;;
12110;SDS011;6119;52.372;8.990;2022-08-05T02:23:36;23.30;;;12.23;;
12110;SDS011;6119;52.372;8.990;2022-08-05T02:26:26;21.27;;;12.63;;
12110;SDS011;6119;52.372;8.990;2022-08-05T02:29:20;21.20;;;11.30;;
12110;SDS011;6119;52.372;8.990;2022-08-05T02:32:28;19.20;;;12.40;;
12110;SDS011;6119;52.372;8.990;2022-08-05T02:35:19;25.37;;;13.67;;
12110;SDS011;6119;52.372;8.990;2022-08-05T02:38:18;23.27;;;11.53;;
12110;SDS011;6119;52.372;8.990;2022-08-05T02:41:11;19.83;;;11.70;;
12110;SDS011;6119;52.372;8.990;2022-08-05T02:44:01;21.23;;;11.63;;
12110;SDS011;6119;52.372;8.990;2022-08-05T02:46:56;21.90;;;11.60;;
12110;SDS011;6119;52.372;8.990;2022-08-05T02:49:45;23.93;;;12.53;;
12110;SDS011;6119;52.372;8.990;2022-08-05T02:52:32;23.23;;;11.63;;
12110;SDS011;6119;52.372;8.990;2022-08-05T02:55:22;25.50;;;11.73;;
12110;SDS011;6119;52.372;8.990;2022-08-05T02:58:29;18.60;;;11.87;;
12110;SDS011;6119;52.372;8.990;2022-08-05T03:01:18;19.10;;;11.03;;
12110;SDS011;6119;52.372;8.990;2022-08-05T03:04:09;27.30;;;12.40;;
12110;SDS011;6119;52.372;8.990;2022-08-05T03:06:59;19.30;;;11.77;;
12110;SDS011;6119;52.372;8.990;2022-08-05T03:09:46;21.70;;;12.27;;
12110;SDS011;6119;52.372;8.990;2022-08-05T03:12:38;27.93;;;12.30;;
12110;SDS011;6119;52.372;8.990;2022-08-05T03:15:25;28.13;;;12.77;;
12110;SDS011;6119;52.372;8.990;2022-08-05T03:18:12;17.33;;;10.80;;
12110;SDS011;6119;52.372;8.990;2022-08-05T03:21:01;19.63;;;11.10;;
12110;SDS011;6119;52.372;8.990;2022-08-05T03:23:50;20.87;;;11.10;;
12110;SDS011;6119;52.372;8.990;2022-08-05T03:26:37;23.90;;;12.43;;
12110;SDS011;6119;52.372;8.990;2022-08-05T03:29:25;20.30;;;12.10;;
12110;SDS011;6119;52.372;8.990;2022-08-05T03:32:33;18.57;;;11.20;;
12110;SDS011;6119;52.372;8.990;2022-08-05T03:35:20;19.33;;;11.37;;
12110;SDS011;6119;52.372;8.990;2022-08-05T03:38:09;22.13;;;11.03;;
12110;SDS011;6119;52.372;8.990;2022-08-05T03:40:58;20.70;;;11.63;;
12110;SDS011;6119;52.372;8.990;2022-08-05T03:43:55;21.13;;;11.93;;
12110;SDS011;6119;52.372;8.990;2022-08-05T03:46:56;17.90;;;10.97;;
12110;SDS011;6119;52.372;8.990;2022-08-05T03:49:43;22.27;;;11.23;;
12110;SDS011;6119;52.372;8.990;2022-08-05T03:52:37;23.60;;;11.47;;
12110;SDS011;6119;52.372;8.990;2022-08-05T03:55:53;21.73;;;10.83;;
12110;SDS011;6119;52.372;8.990;2022-08-05T03:59:02;19.10;;;10.43;;
12110;SDS011;6119;52.372;8.990;2022-08-05T04:01:52;15.67;;;10.37;;
12110;SDS011;6119;52.372;8.990;2022-08-05T04:04:44;15.33;;;9.00;;
12110;SDS011;6119;52.372;8.990;2022-08-05T04:07:32;18.90;;;10.00;;
12110;SDS011;6119;52.372;8.990;2022-08-05T04:10:40;18.53;;;8.87;;
12110;SDS011;6119;52.372;8.990;2022-08-05T04:13:28;19.17;;;9.20;;
12110;SDS011;6119;52.372;8.990;2022-08-05T04:16:35;18.83;;;9.07;;
12110;SDS011;6119;52.372;8.990;2022-08-05T04:19:23;17.70;;;9.47;;
12110;SDS011;6119;52.372;8.990;2022-08-05T04:22:13;19.10;;;9.07;;
12110;SDS011;6119;52.372;8.990;2022-08-05T04:25:05;18.07;;;8.20;;
12110;SDS011;6119;52.372;8.990;2022-08-05T04:27:54;16.77;;;8.13;;
12110;SDS011;6119;52.372;8.990;2022-08-05T04:30:47;12.17;;;7.40;;
12110;SDS011;6119;52.372;8.990;2022-08-05T04:33:34;11.07;;;8.00;;
12110;SDS011;6119;52.372;8.990;2022-08-05T04:36:41;14.60;;;7.23;;
12110;SDS011;6119;52.372;8.990;2022-08-05T04:39:35;17.50;;;8.47;;
12110;SDS011;6119;52.372;8.990;2022-08-05T04:42:23;12.03;;;7.57;;
12110;SDS011;6119;52.372;8.990;2022-08-05T04:45:10;11.83;;;7.30;;
12110;SDS011;6119;52.372;8.990;2022-08-05T04:48:07;12.67;;;6.93;;
12110;SDS011;6119;52.372;8.990;2022-08-05T04:53:39;14.70;;;7.10;;
12110;SDS011;6119;52.372;8.990;2022-08-05T04:56:27;11.00;;;6.70;;
12110;SDS011;6119;52.372;8.990;2022-08-05T04:59:20;12.63;;;6.00;;
12110;SDS011;6119;52.372;8.990;2022-08-05T05:02:24;13.93;;;6.77;;
12110;SDS011;6119;52.372;8.990;2022-08-05T05:05:25;10.40;;;6.23;;
12110;SDS011;6119;52.372;8.990;2022-08-05T05:08:13;10.73;;;6.20;;
12110;SDS011;6119;52.372;8.990;2022-08-05T05:11:14;12.30;;;5.20;;
12110;SDS011;6119;52.372;8.990;2022-08-05T05:14:01;10.07;;;5.90;;
12110;SDS011;6119;52.372;8.990;2022-08-05T05:16:52;8.23;;;5.57;;
12110;SDS011;6119;52.372;8.990;2022-08-05T05:19:38;10.17;;;5.00;;
12110;SDS011;6119;52.372;8.990;2022-08-05T05:22:31;9.37;;;4.87;;
12110;SDS011;6119;52.372;8.990;2022-08-05T05:25:24;8.53;;;4.63;;
12110;SDS011;6119;52.372;8.990;2022-08-05T05:28:25;9.30;;;4.70;;
12110;SDS011;6119;52.372;8.990;2022-08-05T05:31:14;11.37;;;5.10;;
12110;SDS011;6119;52.372;8.990;2022-08-05T05:34:02;8.33;;;4.30;;
12110;SDS011;6119;52.372;8.990;2022-08-05T05:36:48;6.10;;;3.57;;
12110;SDS011;6119;52.372;8.990;2022-08-05T05:39:35;7.73;;;4.20;;
12110;SDS011;6119;52.372;8.990;2022-08-05T05:42:21;6.33;;;3.63;;
12110;SDS011;6119;52.372;8.990;2022-08-05T05:45:08;7.63;;;3.53;;
12110;SDS011;6119;52.372;8.990;2022-08-05T05:47:59;9.83;;;3.77;;
12110;SDS011;6119;52.372;8.990;2022-08-05T05:50:52;6.70;;;3.93;;
12110;SDS011;6119;52.372;8.990;2022-08-05T05:53:39;8.10;;;3.57;;
12110;SDS011;6119;52.372;8.990;2022-08-05T05:56:43;8.77;;;3.53;;
12110;SDS011;6119;52.372;8.990;2022-08-05T05:59:31;8.23;;;3.73;;
12110;SDS011;6119;52.372;8.990;2022-08-05T06:02:24;8.87;;;3.93;;
12110;SDS011;6119;52.372;8.990;2022-08-05T06:05:22;7.70;;;4.33;;
12110;SDS011;6119;52.372;8.990;2022-08-05T06:08:10;8.77;;;4.47;;
12110;SDS011;6119;52.372;8.990;2022-08-05T06:10:56;8.37;;;3.90;;
12110;SDS011;6119;52.372;8.990;2022-08-05T06:13:44;5.63;;;3.57;;
12110;SDS011;6119;52.372;8.990;2022-08-05T06:16:38;7.40;;;3.83;;
12110;SDS011;6119;52.372;8.990;2022-08-05T06:19:27;9.93;;;4.47;;
12110;SDS011;6119;52.372;8.990;2022-08-05T06:22:22;8.33;;;4.30;;
12110;SDS011;6119;52.372;8.990;2022-08-05T06:25:10;7.93;;;3.93;;
12110;SDS011;6119;52.372;8.990;2022-08-05T06:28:17;6.93;;;4.30;;
12110;SDS011;6119;52.372;8.990;2022-08-05T06:31:05;5.73;;;3.97;;
12110;SDS011;6119;52.372;8.990;2022-08-05T06:33:55;9.97;;;4.77;;
12110;SDS011;6119;52.372;8.990;2022-08-05T06:36:52;8.13;;;4.47;;
12110;SDS011;6119;52.372;8.990;2022-08-05T06:39:43;8.17;;;4.63;;
12110;SDS011;6119;52.372;8.990;2022-08-05T06:42:30;10.07;;;4.83;;
12110;SDS011;6119;52.372;8.990;2022-08-05T06:45:16;9.50;;;4.87;;
12110;SDS011;6119;52.372;8.990;2022-08-05T06:48:05;11.70;;;5.20;;
12110;SDS011;6119;52.372;8.990;2022-08-05T06:51:11;10.13;;;5.10;;
12110;SDS011;6119;52.372;8.990;2022-08-05T06:54:11;12.03;;;5.63;;
12110;SDS011;6119;52.372;8.990;2022-08-05T06:57:04;10.10;;;4.77;;
12110;SDS011;6119;52.372;8.990;2022-08-05T07:00:11;9.47;;;4.90;;
12110;SDS011;6119;52.372;8.990;2022-08-05T07:03:06;9.00;;;5.30;;
12110;SDS011;6119;52.372;8.990;2022-08-05T07:05:53;8.80;;;4.93;;
12110;SDS011;6119;52.372;8.990;2022-08-05T07:08:40;7.33;;;5.10;;
12110;SDS011;6119;52.372;8.990;2022-08-05T07:11:35;8.83;;;5.17;;
12110;SDS011;6119;52.372;8.990;2022-08-05T07:14:25;8.50;;;4.47;;
12110;SDS011;6119;52.372;8.990;2022-08-05T07:17:29;13.03;;;5.53;;
12110;SDS011;6119;52.372;8.990;2022-08-05T07:20:36;10.13;;;5.37;;
12110;SDS011;6119;52.372;8.990;2022-08-05T07:23:22;8.63;;;5.30;;
12110;SDS011;6119;52.372;8.990;2022-08-05T07:26:13;12.53;;;5.53;;
12110;SDS011;6119;52.372;8.990;2022-08-05T07:29:06;9.10;;;5.70;;
12110;SDS011;6119;52.372;8.990;2022-08-05T07:31:54;10.50;;;5.07;;
12110;SDS011;6119;52.372;8.990;2022-08-05T07:34:41;10.97;;;4.93;;
12110;SDS011;6119;52.372;8.990;2022-08-05T07:37:29;10.63;;;4.63;;
12110;SDS011;6119;52.372;8.990;2022-08-05T07:40:23;7.40;;;4.60;;
12110;SDS011;6119;52.372;8.990;2022-08-05T07:43:17;7.13;;;4.70;;
12110;SDS011;6119;52.372;8.990;2022-08-05T07:46:04;6.43;;;4.20;;
12110;SDS011;6119;52.372;8.990;2022-08-05T07:49:10;7.80;;;4.53;;
12110;SDS011;6119;52.372;8.990;2022-08-05T07:51:58;5.20;;;3.90;;
12110;SDS011;6119;52.372;8.990;2022-08-05T07:54:44;11.07;;;4.80;;
12110;SDS011;6119;52.372;8.990;2022-08-05T07:57:34;9.07;;;4.63;;
12110;SDS011;6119;52.372;8.990;2022-08-05T08:00:40;6.03;;;3.57;;
12110;SDS011;6119;52.372;8.990;2022-08-05T08:03:29;8.63;;;3.87;;
12110;SDS011;6119;52.372;8.990;2022-08-05T08:06:30;6.80;;;4.47;;
12110;SDS011;6119;52.372;8.990;2022-08-05T08:09:16;7.90;;;4.37;;
12110;SDS011;6119;52.372;8.990;2022-08-05T08:12:04;10.07;;;4.53;;
12110;SDS011;6119;52.372;8.990;2022-08-05T08:15:11;8.63;;;4.20;;
12110;SDS011;6119;52.372;8.990;2022-08-05T08:17:59;8.90;;;4.63;;
12110;SDS011;6119;52.372;8.990;2022-08-05T08:20:52;8.60;;;4.43;;
12110;SDS011;6119;52.372;8.990;2022-08-05T08:23:48;6.53;;;4.23;;
12110;SDS011;6119;52.372;8.990;2022-08-05T08:26:48;7.93;;;4.83;;
12110;SDS011;6119;52.372;8.990;2022-08-05T08:29:36;8.17;;;4.80;;
12110;SDS011;6119;52.372;8.990;2022-08-05T08:32:43;9.13;;;5.07;;
12110;SDS011;6119;52.372;8.990;2022-08-05T08:35:30;8.23;;;5.40;;
12110;SDS011;6119;52.372;8.990;2022-08-05T08:38:24;9.33;;;5.47;;
12110;SDS011;6119;52.372;8.990;2022-08-05T08:41:21;11.13;;;6.40;;
12110;SDS011;6119;52.372;8.990;2022-08-05T08:44:30;8.67;;;5.93;;
12110;SDS011;6119;52.372;8.990;2022-08-05T08:47:37;9.67;;;5.97;;
12110;SDS011;6119;52.372;8.990;2022-08-05T08:50:45;9.33;;;6.07;;
12110;SDS011;6119;52.372;8.990;2022-08-05T08:53:52;8.80;;;6.07;;
12110;SDS011;6119;52.372;8.990;2022-08-05T08:56:41;13.07;;;6.97;;
12110;SDS011;6119;52.372;8.990;2022-08-05T08:59:33;10.50;;;6.40;;
12110;SDS011;6119;52.372;8.990;2022-08-05T09:02:22;10.00;;;7.63;;
12110;SDS011;6119;52.372;8.990;2022-08-05T09:05:11;10.87;;;7.47;;
12110;SDS011;6119;52.372;8.990;2022-08-05T09:08:02;10.60;;;7.90;;
12110;SDS011;6119;52.372;8.990;2022-08-05T09:10:53;10.83;;;8.23;;
12110;SDS011;6119;52.372;8.990;2022-08-05T09:13:41;12.00;;;8.40;;
12110;SDS011;6119;52.372;8.990;2022-08-05T09:16:48;10.77;;;9.37;;
12110;SDS011;6119;52.372;8.990;2022-08-05T09:19:36;11.50;;;8.73;;
12110;SDS011;6119;52.372;8.990;2022-08-05T09:23:02;12.33;;;8.83;;
12110;SDS011;6119;52.372;8.990;2022-08-05T09:26:06;9.63;;;7.93;;
12110;SDS011;6119;52.372;8.990;2022-08-05T09:28:54;9.60;;;6.80;;
12110;SDS011;6119;52.372;8.990;2022-08-05T09:31:59;12.83;;;6.70;;
12110;SDS011;6119;52.372;8.990;2022-08-05T09:35:10;7.23;;;5.77;;
12110;SDS011;6119;52.372;8.990;2022-08-05T09:38:11;8.30;;;5.53;;
12110;SDS011;6119;52.372;8.990;2022-08-05T09:41:03;7.50;;;5.97;;
12110;SDS011;6119;52.372;8.990;2022-08-05T09:43:52;9.77;;;6.50;;
12110;SDS011;6119;52.372;8.990;2022-08-05T09:46:41;9.70;;;6.53;;
12110;SDS011;6119;52.372;8.990;2022-08-05T09:49:41;8.37;;;6.07;;
12110;SDS011;6119;52.372;8.990;2022-08-05T09:52:45;11.90;;;7.60;;
12110;SDS011;6119;52.372;8.990;2022-08-05T09:55:36;10.97;;;7.43;;
12110;SDS011;6119;52.372;8.990;2022-08-05T09:58:41;10.93;;;7.80;;
12110;SDS011;6119;52.372;8.990;2022-08-05T10:01:42;10.60;;;7.73;;
12110;SDS011;6119;52.372;8.990;2022-08-05T10:04:34;9.30;;;7.27;;
12110;SDS011;6119;52.372;8.990;2022-08-05T10:07:23;14.83;;;8.87;;
12110;SDS011;6119;52.372;8.990;2022-08-05T10:10:48;11.23;;;7.90;;
12110;SDS011;6119;52.372;8.990;2022-08-05T10:13:38;10.67;;;8.53;;
12110;SDS011;6119;52.372;8.990;2022-08-05T10:16:32;12.33;;;8.87;;
12110;SDS011;6119;52.372;8.990;2022-08-05T10:19:36;10.87;;;8.33;;
12110;SDS011;6119;52.372;8.990;2022-08-05T10:22:43;10.57;;;8.70;;
12110;SDS011;6119;52.372;8.990;2022-08-05T10:25:35;10.43;;;7.23;;
12110;SDS011;6119;52.372;8.990;2022-08-05T10:28:21;9.07;;;6.63;;
12110;SDS011;6119;52.372;8.990;2022-08-05T10:31:14;8.73;;;6.27;;
12110;SDS011;6119;52.372;8.990;2022-08-05T10:34:23;6.67;;;5.27;;
12110;SDS011;6119;52.372;8.990;2022-08-05T10:37:15;7.00;;;5.17;;
12110;SDS011;6119;52.372;8.990;2022-08-05T10:40:06;9.00;;;5.17;;
12110;SDS011;6119;52.372;8.990;2022-08-05T10:43:06;10.27;;;4.67;;
12110;SDS011;6119;52.372;8.990;2022-08-05T10:45:59;6.37;;;5.17;;
12110;SDS011;6119;52.372;8.990;2022-08-05T10:48:54;4.93;;;4.50;;
12110;SDS011;6119;52.372;8.990;2022-08-05T10:51:55;4.50;;;4.10;;
12110;SDS011;6119;52.372;8.990;2022-08-05T10:54:47;4.60;;;3.50;;
12110;SDS011;6119;52.372;8.990;2022-08-05T10:57:46;6.23;;;3.60;;
12110;SDS011;6119;52.372;8.990;2022-08-05T11:00:36;3.23;;;2.90;;
12110;SDS011;6119;52.372;8.990;2022-08-05T11:03:28;3.10;;;2.57;;
12110;SDS011;6119;52.372;8.990;2022-08-05T11:06:17;3.30;;;2.43;;
12110;SDS011;6119;52.372;8.990;2022-08-05T11:09:17;5.30;;;2.70;;
12110;SDS011;6119;52.372;8.990;2022-08-05T11:12:42;3.17;;;2.50;;
12110;SDS011;6119;52.372;8.990;2022-08-05T11:15:38;6.33;;;3.23;;
12110;SDS011;6119;52.372;8.990;2022-08-05T11:18:45;4.43;;;3.10;;
12110;SDS011;6119;52.372;8.990;2022-08-05T11:21:38;5.27;;;3.17;;
12110;SDS011;6119;52.372;8.990;2022-08-05T11:24:34;7.10;;;3.27;;
12110;SDS011;6119;52.372;8.990;2022-08-05T11:27:34;4.90;;;3.67;;
12110;SDS011;6119;52.372;8.990;2022-08-05T11:34:33;5.77;;;3.60;;
12110;SDS011;6119;52.372;8.990;2022-08-05T11:37:41;7.33;;;3.77;;
12110;SDS011;6119;52.372;8.990;2022-08-05T11:41:05;3.43;;;3.13;;
12110;SDS011;6119;52.372;8.990;2022-08-05T11:44:13;5.30;;;3.27;;
12110;SDS011;6119;52.372;8.990;2022-08-05T11:47:21;5.63;;;3.80;;
12110;SDS011;6119;52.372;8.990;2022-08-05T11:50:28;5.93;;;3.10;;
12110;SDS011;6119;52.372;8.990;2022-08-05T11:53:22;4.60;;;2.80;;
12110;SDS011;6119;52.372;8.990;2022-08-05T11:56:18;4.33;;;2.57;;
12110;SDS011;6119;52.372;8.990;2022-08-05T11:59:25;5.50;;;3.00;;
12110;SDS011;6119;52.372;8.990;2022-08-05T12:02:26;3.70;;;3.20;;
12110;SDS011;6119;52.372;8.990;2022-08-05T12:05:23;4.60;;;3.33;;
12110;SDS011;6119;52.372;8.990;2022-08-05T12:08:23;3.70;;;3.40;;
12110;SDS011;6119;52.372;8.990;2022-08-05T12:11:10;5.27;;;3.40;;
12110;SDS011;6119;52.372;8.990;2022-08-05T12:14:06;3.47;;;2.70;;
12110;SDS011;6119;52.372;8.990;2022-08-05T12:16:54;5.53;;;2.90;;
12110;SDS011;6119;52.372;8.990;2022-08-05T12:19:40;6.13;;;3.30;;
12110;SDS011;6119;52.372;8.990;2022-08-05T12:22:48;5.37;;;3.47;;
12110;SDS011;6119;52.372;8.990;2022-08-05T12:25:47;5.13;;;3.53;;
12110;SDS011;6119;52.372;8.990;2022-08-05T12:28:35;3.63;;;3.33;;
12110;SDS011;6119;52.372;8.990;2022-08-05T12:31:23;3.53;;;3.23;;
12110;SDS011;6119;52.372;8.990;2022-08-05T12:34:30;7.43;;;3.30;;
12110;SDS011;6119;52.372;8.990;2022-08-05T12:37:19;5.60;;;3.30;;
12110;SDS011;6119;52.372;8.990;2022-08-05T12:40:14;4.10;;;3.57;;
12110;SDS011;6119;52.372;8.990;2022-08-05T12:43:10;4.57;;;3.70;;
12110;SDS011;6119;52.372;8.990;2022-08-05T12:46:05;6.67;;;3.60;;
12110;SDS011;6119;52.372;8.990;2022-08-05T12:48:58;4.73;;;3.67;;
12110;SDS011;6119;52.372;8.990;2022-08-05T12:51:58;6.60;;;3.53;;
12110;SDS011;6119;52.372;8.990;2022-08-05T12:55:14;3.90;;;2.90;;
12110;SDS011;6119;52.372;8.990;2022-08-05T12:58:07;5.03;;;3.73;;
12110;SDS011;6119;52.372;8.990;2022-08-05T13:01:13;8.43;;;4.50;;
12110;SDS011;6119;52.372;8.990;2022-08-05T13:04:24;4.23;;;3.83;;
12110;SDS011;6119;52.372;8.990;2022-08-05T13:07:12;4.63;;;4.13;;
12110;SDS011;6119;52.372;8.990;2022-08-05T13:10:01;3.73;;;3.10;;
12110;SDS011;6119;52.372;8.990;2022-08-05T13:12:48;3.83;;;3.47;;
12110;SDS011;6119;52.372;8.990;2022-08-05T13:15:42;4.17;;;3.73;;
12110;SDS011;6119;52.372;8.990;2022-08-05T13:18:36;4.47;;;2.83;;
12110;SDS011;6119;52.372;8.990;2022-08-05T13:21:24;3.50;;;3.17;;
12110;SDS011;6119;52.372;8.990;2022-08-05T13:24:22;4.43;;;2.87;;
12110;SDS011;6119;52.372;8.990;2022-08-05T13:27:29;4.20;;;3.47;;
12110;SDS011;6119;52.372;8.990;2022-08-05T13:30:22;4.50;;;3.50;;
12110;SDS011;6119;52.372;8.990;2022-08-05T13:33:20;3.80;;;2.80;;
12110;SDS011;6119;52.372;8.990;2022-08-05T13:36:28;3.53;;;2.93;;
12110;SDS011;6119;52.372;8.990;2022-08-05T13:39:15;4.30;;;2.67;;
12110;SDS011;6119;52.372;8.990;2022-08-05T13:42:21;3.00;;;2.70;;
12110;SDS011;6119;52.372;8.990;2022-08-05T13:45:09;3.00;;;2.60;;
12110;SDS011;6119;52.372;8.990;2022-08-05T13:48:04;3.77;;;2.70;;
12110;SDS011;6119;52.372;8.990;2022-08-05T13:51:11;7.10;;;3.57;;
12110;SDS011;6119;52.372;8.990;2022-08-05T13:54:00;4.10;;;3.60;;
12110;SDS011;6119;52.372;8.990;2022-08-05T13:56:56;4.50;;;3.40;;
12110;SDS011;6119;52.372;8.990;2022-08-05T13:59:43;4.03;;;3.63;;
12110;SDS011;6119;52.372;8.990;2022-08-05T14:02:43;4.57;;;3.53;;
12110;SDS011;6119;52.372;8.990;2022-08-05T14:05:30;5.40;;;3.10;;
12110;SDS011;6119;52.372;8.990;2022-08-05T14:08:37;5.90;;;3.47;;
12110;SDS011;6119;52.372;8.990;2022-08-05T14:11:24;4.97;;;3.20;;
12110;SDS011;6119;52.372;8.990;2022-08-05T14:14:14;4.50;;;3.33;;
12110;SDS011;6119;52.372;8.990;2022-08-05T14:17:13;5.07;;;3.80;;
12110;SDS011;6119;52.372;8.990;2022-08-05T14:20:02;4.27;;;3.57;;
12110;SDS011;6119;52.372;8.990;2022-08-05T14:22:51;7.00;;;3.90;;
12110;SDS011;6119;52.372;8.990;2022-08-05T14:25:38;5.03;;;3.90;;
12110;SDS011;6119;52.372;8.990;2022-08-05T14:28:30;5.67;;;3.63;;
12110;SDS011;6119;52.372;8.990;2022-08-05T14:31:18;4.40;;;3.40;;
12110;SDS011;6119;52.372;8.990;2022-08-05T14:34:26;3.27;;;2.97;;
12110;SDS011;6119;52.372;8.990;2022-08-05T14:37:19;5.37;;;2.97;;
12110;SDS011;6119;52.372;8.990;2022-08-05T14:40:07;7.67;;;3.13;;
12110;SDS011;6119;52.372;8.990;2022-08-05T14:42:58;3.57;;;3.27;;
12110;SDS011;6119;52.372;8.990;2022-08-05T14:45:45;2.73;;;2.40;;
12110;SDS011;6119;52.372;8.990;2022-08-05T14:48:32;2.50;;;2.30;;
12110;SDS011;6119;52.372;8.990;2022-08-05T14:51:21;3.40;;;2.70;;
12110;SDS011;6119;52.372;8.990;2022-08-05T14:54:14;2.60;;;2.40;;
12110;SDS011;6119;52.372;8.990;2022-08-05T14:57:13;3.43;;;2.50;;
12110;SDS011;6119;52.372;8.990;2022-08-05T15:00:01;5.90;;;2.30;;
12110;SDS011;6119;52.372;8.990;2022-08-05T15:02:49;4.83;;;2.30;;
12110;SDS011;6119;52.372;8.990;2022-08-05T15:05:35;2.30;;;2.10;;
12110;SDS011;6119;52.372;8.990;2022-08-05T15:08:42;2.57;;;2.33;;
12110;SDS011;6119;52.372;8.990;2022-08-05T15:11:47;7.60;;;2.40;;
12110;SDS011;6119;52.372;8.990;2022-08-05T15:14:37;2.97;;;2.10;;
12110;SDS011;6119;52.372;8.990;2022-08-05T15:17:33;2.33;;;2.00;;
12110;SDS011;6119;52.372;8.990;2022-08-05T15:20:31;3.00;;;2.30;;
12110;SDS011;6119;52.372;8.990;2022-08-05T15:23:18;4.30;;;2.10;;
12110;SDS011;6119;52.372;8.990;2022-08-05T15:26:06;3.07;;;1.87;;
12110;SDS011;6119;52.372;8.990;2022-08-05T15:28:53;4.30;;;2.07;;
12110;SDS011;6119;52.372;8.990;2022-08-05T15:31:42;4.23;;;2.00;;
12110;SDS011;6119;52.372;8.990;2022-08-05T15:34:36;3.43;;;1.80;;
12110;SDS011;6119;52.372;8.990;2022-08-05T15:37:25;2.67;;;1.80;;
12110;SDS011;6119;52.372;8.990;2022-08-05T15:40:32;5.07;;;2.20;;
12110;SDS011;6119;52.372;8.990;2022-08-05T15:43:39;2.23;;;1.80;;
12110;SDS011;6119;52.372;8.990;2022-08-05T15:46:31;5.20;;;2.00;;
12110;SDS011;6119;52.372;8.990;2022-08-05T15:49:17;3.70;;;2.00;;
12110;SDS011;6119;52.372;8.990;2022-08-05T15:52:25;1.97;;;1.67;;
12110;SDS011;6119;52.372;8.990;2022-08-05T15:55:32;6.00;;;1.50;;
12110;SDS011;6119;52.372;8.990;2022-08-05T15:58:39;1.60;;;1.30;;
12110;SDS011;6119;52.372;8.990;2022-08-05T16:01:27;4.10;;;1.30;;
12110;SDS011;6119;52.372;8.990;2022-08-05T16:04:23;1.00;;;1.00;;
12110;SDS011;6119;52.372;8.990;2022-08-05T16:07:10;10.03;;;1.17;;
12110;SDS011;6119;52.372;8.990;2022-08-05T16:09:58;1.70;;;0.90;;
12110;SDS011;6119;52.372;8.990;2022-08-05T16:12:45;1.20;;;0.80;;
12110;SDS011;6119;52.372;8.990;2022-08-05T16:15:33;1.30;;;0.73;;
12110;SDS011;6119;52.372;8.990;2022-08-05T16:18:19;1.30;;;1.03;;
12110;SDS011;6119;52.372;8.990;2022-08-05T16:21:13;4.23;;;0.83;;
12110;SDS011;6119;52.372;8.990;2022-08-05T16:23:59;2.00;;;0.50;;
12110;SDS011;6119;52.372;8.990;2022-08-05T16:26:49;2.53;;;0.80;;
12110;SDS011;6119;52.372;8.990;2022-08-05T16:29:37;0.93;;;0.70;;
12110;SDS011;6119;52.372;8.990;2022-08-05T16:32:30;1.10;;;0.80;;
12110;SDS011;6119;52.372;8.990;2022-08-05T16:35:18;3.33;;;0.70;;
12110;SDS011;6119;52.372;8.990;2022-08-05T16:38:12;1.57;;;0.80;;
12110;SDS011;6119;52.372;8.990;2022-08-05T16:41:09;1.20;;;0.67;;
12110;SDS011;6119;52.372;8.990;2022-08-05T16:44:17;0.60;;;0.50;;
12110;SDS011;6119;52.372;8.990;2022-08-05T16:47:09;1.67;;;1.00;;
12110;SDS011;6119;52.372;8.990;2022-08-05T16:50:15;0.90;;;0.60;;
12110;SDS011;6119;52.372;8.990;2022-08-05T16:53:01;4.93;;;0.90;;
12110;SDS011;6119;52.372;8.990;2022-08-05T16:56:06;1.07;;;0.60;;
12110;SDS011;6119;52.372;8.990;2022-08-05T16:58:55;3.00;;;0.77;;
12110;SDS011;6119;52.372;8.990;2022-08-05T17:01:45;2.43;;;1.13;;
12110;SDS011;6119;52.372;8.990;2022-08-05T17:04:38;3.23;;;0.90;;
12110;SDS011;6119;52.372;8.990;2022-08-05T17:07:25;1.20;;;0.90;;
12110;SDS011;6119;52.372;8.990;2022-08-05T17:10:27;5.63;;;0.70;;
12110;SDS011;6119;52.372;8.990;2022-08-05T17:13:14;0.83;;;0.67;;
12110;SDS011;6119;52.372;8.990;2022-08-05T17:16:05;0.97;;;0.80;;
12110;SDS011;6119;52.372;8.990;2022-08-05T17:19:13;0.60;;;0.60;;
12110;SDS011;6119;52.372;8.990;2022-08-05T17:22:00;0.67;;;0.50;;
12110;SDS011;6119;52.372;8.990;2022-08-05T17:24:48;0.70;;;0.70;;
12110;SDS011;6119;52.372;8.990;2022-08-05T17:27:42;0.70;;;0.70;;
12110;SDS011;6119;52.372;8.990;2022-08-05T17:30:28;3.03;;;1.07;;
12110;SDS011;6119;52.372;8.990;2022-08-05T17:33:15;1.27;;;0.70;;
12110;SDS011;6119;52.372;8.990;2022-08-05T17:36:05;0.60;;;0.60;;
12110;SDS011;6119;52.372;8.990;2022-08-05T17:39:12;1.00;;;0.90;;
12110;SDS011;6119;52.372;8.990;2022-08-05T17:42:17;1.43;;;0.60;;
12110;SDS011;6119;52.372;8.990;2022-08-05T17:45:11;1.63;;;0.70;;
12110;SDS011;6119;52.372;8.990;2022-08-05T17:48:05;1.23;;;0.73;;